Flight Briefing for CPX238

Departure Arrival
Luis Munoz Marin International Airport (TJSJ)
Click to view FAA NOTAMS
Miami International Airport (KMIA)
Click to view FAA NOTAMS
Departure Time Arrival Time
N/A N/A
Aircraft Distance
B767-300BDSF 909nm
Departure METAR Arrival METAR
TJSJ 221056Z 13003KT 10SM FEW028 SCT080 24/21 A3001 RMK AO2 SLP160 VCSH S-SW T02440206 KMIA 221053Z 33009G15KT 10SM CLR 15/12 A3005 RMK AO2 SLP176 T01500117
Suggested Route
ACONY3 PALDE FEKKO Y308 FOWEE FLIPR6


View recent IFR Routes data
Notes



Charts and Procedures

Charts for TJSJ
No chart available
Charts for KMIA
No chart available

Windy.com Weather Map